createdAt,value
2023-07-12T00:01:02.416Z,1.80
2023-07-12T00:03:32.041Z,2.10
2023-07-12T00:05:58.874Z,2.30
2023-07-12T00:08:28.086Z,2.20
2023-07-12T00:10:57.257Z,2.20
2023-07-12T00:13:25.219Z,2.40
2023-07-12T00:15:53.792Z,2.15
2023-07-12T00:18:27.017Z,1.90
2023-07-12T00:20:54.550Z,3.15
2023-07-12T00:23:21.859Z,2.30
2023-07-12T00:25:50.241Z,2.35
2023-07-12T00:28:24.807Z,2.42
2023-07-12T00:30:53.261Z,1.92
2023-07-12T00:33:20.889Z,1.92
2023-07-12T00:35:49.160Z,2.33
2023-07-12T00:38:22.293Z,1.90
2023-07-12T00:40:54.957Z,2.50
2023-07-12T00:43:34.027Z,1.80
2023-07-12T00:46:04.118Z,2.15
2023-07-12T00:48:30.984Z,2.10
2023-07-12T00:50:58.188Z,2.35
2023-07-12T00:53:26.346Z,2.38
2023-07-12T00:55:56.089Z,2.40
2023-07-12T00:58:29.674Z,2.00
2023-07-12T01:01:00.015Z,2.70
2023-07-12T01:03:31.016Z,2.50
2023-07-12T01:05:58.156Z,2.00
2023-07-12T01:08:24.894Z,2.08
2023-07-12T01:10:52.020Z,2.90
2023-07-12T01:13:24.891Z,2.20
2023-07-12T01:15:53.332Z,2.90
2023-07-12T01:18:20.663Z,2.95
2023-07-12T01:20:48.237Z,2.60
2023-07-12T01:23:14.888Z,2.55
2023-07-12T01:25:46.131Z,2.67
2023-07-12T01:28:13.735Z,2.03
2023-07-12T01:30:41.558Z,2.78
2023-07-12T01:33:08.590Z,2.40
2023-07-12T01:35:37.098Z,2.40
2023-07-12T01:38:03.715Z,2.60
2023-07-12T01:40:30.360Z,2.08
2023-07-12T01:42:56.957Z,2.83
2023-07-12T01:45:23.863Z,2.10
2023-07-12T01:47:50.584Z,2.40
2023-07-12T01:50:17.370Z,1.90
2023-07-12T01:52:44.092Z,1.88
2023-07-12T01:55:10.709Z,2.85
2023-07-12T01:57:37.353Z,1.90
2023-07-12T02:00:05.074Z,1.73
2023-07-12T02:02:31.884Z,2.57
2023-07-12T02:04:58.579Z,2.30
2023-07-12T02:07:25.227Z,2.42
2023-07-12T02:10:14.079Z,2.53
2023-07-12T02:12:41.468Z,2.33
2023-07-12T02:15:08.701Z,2.50
2023-07-12T02:17:35.359Z,2.38
2023-07-12T02:20:02.127Z,2.00
2023-07-12T02:22:33.552Z,2.53
2023-07-12T02:25:00.174Z,2.47
2023-07-12T02:27:27.314Z,2.30
2023-07-12T02:29:54.526Z,2.40
2023-07-12T02:32:24.638Z,2.55
2023-07-12T02:34:51.337Z,2.80
2023-07-12T02:37:18.275Z,3.25
2023-07-12T02:39:46.679Z,2.57
2023-07-12T02:42:13.755Z,2.63
2023-07-12T02:44:41.107Z,3.03
2023-07-12T02:47:09.762Z,3.55
2023-07-12T02:49:37.393Z,3.33
2023-07-12T02:52:05.504Z,3.03
2023-07-12T02:54:33.150Z,3.30
2023-07-12T02:57:00.879Z,2.97
2023-07-12T02:59:27.769Z,2.97
2023-07-12T03:01:54.808Z,3.58
2023-07-12T03:04:22.755Z,3.20
2023-07-12T03:06:50.161Z,3.58
2023-07-12T03:09:17.148Z,3.42
2023-07-12T03:11:48.279Z,3.22
2023-07-12T03:14:16.999Z,2.65
2023-07-12T03:16:44.122Z,3.23
2023-07-12T03:19:11.166Z,3.45
2023-07-12T03:21:38.841Z,4.47
2023-07-12T03:24:06.685Z,3.13
2023-07-12T03:26:33.988Z,3.45
2023-07-12T03:29:00.968Z,3.90
2023-07-12T03:31:30.188Z,3.92
2023-07-12T03:33:58.132Z,3.75
2023-07-12T03:36:29.842Z,3.25
2023-07-12T03:38:57.878Z,3.20
2023-07-12T03:41:24.539Z,3.90
2023-07-12T03:43:51.673Z,3.67
2023-07-12T03:46:19.992Z,3.33
2023-07-12T03:48:46.650Z,4.03
2023-07-12T03:51:15.721Z,3.70
2023-07-12T03:53:42.413Z,3.97
2023-07-12T03:56:11.066Z,3.67
2023-07-12T03:58:39.761Z,3.85
2023-07-12T04:01:12.851Z,4.05
2023-07-12T04:03:40.484Z,3.97
2023-07-12T04:06:08.686Z,3.67
2023-07-12T04:08:35.674Z,3.50
2023-07-12T04:11:03.520Z,3.90
2023-07-12T04:13:31.234Z,3.67
2023-07-12T04:16:01.354Z,3.58
2023-07-12T04:18:28.821Z,3.73
2023-07-12T04:20:57.009Z,3.60
2023-07-12T04:23:23.695Z,3.65
2023-07-12T04:25:58.673Z,3.35
2023-07-12T04:28:27.048Z,3.45
2023-07-12T04:30:53.721Z,3.40
2023-07-12T04:33:20.386Z,3.58
2023-07-12T04:35:46.977Z,3.78
2023-07-12T04:38:13.860Z,4.60
2023-07-12T04:40:40.415Z,4.30
2023-07-12T04:43:08.950Z,3.83
2023-07-12T04:45:36.114Z,4.10
2023-07-12T04:48:02.847Z,3.97
2023-07-12T04:50:29.665Z,3.35
2023-07-12T04:52:56.311Z,3.78
2023-07-12T04:55:28.540Z,3.90
2023-07-12T04:57:56.507Z,3.78
2023-07-12T05:00:28.355Z,3.25
2023-07-12T05:02:55.354Z,3.40
2023-07-12T05:05:23.038Z,3.95
2023-07-12T05:07:49.897Z,3.57
2023-07-12T05:10:16.919Z,4.57
2023-07-12T05:12:43.895Z,3.97
2023-07-12T05:15:13.656Z,4.30
2023-07-12T05:17:41.196Z,4.30
2023-07-12T05:20:11.385Z,4.40
2023-07-12T05:22:38.218Z,5.20
2023-07-12T05:25:06.450Z,4.15
2023-07-12T05:27:33.594Z,4.70
2023-07-12T05:30:01.682Z,4.38
2023-07-12T05:32:28.601Z,4.90
2023-07-12T05:34:55.461Z,5.50
2023-07-12T05:37:22.256Z,4.60
2023-07-12T05:39:48.955Z,4.80
2023-07-12T05:42:15.611Z,4.30
2023-07-12T05:44:42.181Z,4.60
2023-07-12T05:47:08.975Z,5.13
2023-07-12T05:49:37.411Z,5.28
2023-07-12T05:52:04.785Z,4.32
2023-07-12T05:54:31.978Z,4.20
2023-07-12T05:56:58.873Z,4.33
2023-07-12T05:59:25.471Z,4.55
2023-07-12T06:01:55.493Z,4.45
2023-07-12T06:04:22.309Z,4.70
2023-07-12T06:06:49.147Z,4.28
2023-07-12T06:09:16.380Z,4.30
2023-07-12T06:11:43.155Z,4.90
2023-07-12T06:14:09.866Z,3.92
2023-07-12T06:16:38.953Z,4.07
2023-07-12T06:19:05.993Z,4.40
2023-07-12T06:21:32.605Z,4.00
2023-07-12T06:24:00.862Z,4.43
2023-07-12T06:26:28.688Z,4.03
2023-07-12T06:28:55.848Z,4.03
2023-07-12T06:31:23.916Z,4.00
2023-07-12T06:33:50.680Z,3.73
2023-07-12T06:36:17.539Z,3.78
2023-07-12T06:38:46.382Z,4.03
2023-07-12T06:41:14.015Z,4.50
2023-07-12T06:43:40.682Z,4.13
2023-07-12T06:46:07.611Z,4.27
2023-07-12T06:48:34.591Z,4.32
2023-07-12T06:51:01.351Z,4.28
2023-07-12T06:53:27.975Z,4.38
2023-07-12T06:55:55.650Z,4.03
2023-07-12T06:58:22.544Z,3.97
2023-07-12T07:00:50.495Z,4.22
2023-07-12T07:03:17.655Z,3.97
2023-07-12T07:05:46.503Z,4.13
2023-07-12T07:08:15.035Z,4.03
2023-07-12T07:10:42.106Z,3.90
2023-07-12T07:13:09.903Z,3.97
2023-07-12T07:15:37.215Z,3.65
2023-07-12T07:18:04.108Z,3.63
2023-07-12T07:20:32.958Z,3.78
2023-07-12T07:23:00.415Z,3.60
2023-07-12T07:25:29.714Z,4.35
2023-07-12T07:27:56.698Z,3.97
2023-07-12T07:30:26.399Z,3.97
2023-07-12T07:32:55.395Z,4.28
2023-07-12T07:35:22.938Z,4.40
2023-07-12T07:37:49.918Z,3.28
2023-07-12T07:40:17.265Z,4.40
2023-07-12T07:42:44.135Z,4.20
2023-07-12T07:45:11.886Z,4.30
2023-07-12T07:47:39.369Z,4.03
2023-07-12T07:50:08.052Z,4.05
2023-07-12T07:52:34.839Z,3.97
2023-07-12T07:55:02.029Z,5.05
2023-07-12T07:57:30.177Z,4.60
2023-07-12T07:59:57.372Z,4.70
2023-07-12T08:02:24.662Z,4.22
2023-07-12T08:04:51.524Z,4.55
2023-07-12T08:07:18.238Z,4.30
2023-07-12T08:09:45.256Z,3.97
2023-07-12T08:12:12.147Z,3.77
2023-07-12T08:14:38.940Z,4.13
2023-07-12T08:17:06.041Z,4.30
2023-07-12T08:19:32.804Z,3.97
2023-07-12T08:21:59.474Z,4.25
2023-07-12T08:24:26.454Z,4.43
2023-07-12T08:27:02.474Z,4.20
2023-07-12T08:29:34.176Z,4.30
2023-07-12T08:32:01.105Z,4.40
2023-07-12T08:34:28.040Z,4.38
2023-07-12T08:36:54.730Z,4.13
2023-07-12T08:39:21.378Z,4.15
2023-07-12T08:41:49.978Z,6.38
2023-07-12T08:44:16.680Z,3.55
2023-07-12T08:46:54.748Z,4.60
2023-07-12T08:49:23.233Z,4.10
2023-07-12T08:51:50.862Z,3.80
2023-07-12T08:54:23.776Z,3.83
2023-07-12T08:57:05.768Z,4.03
2023-07-12T08:59:33.245Z,4.13
2023-07-12T09:02:01.785Z,4.47
2023-07-12T09:04:33.091Z,4.63
2023-07-12T09:07:05.746Z,4.38
2023-07-12T09:09:40.266Z,3.95
2023-07-12T09:12:22.521Z,4.32
2023-07-12T09:14:53.369Z,4.47
2023-07-12T09:17:25.212Z,3.95
2023-07-12T09:19:51.874Z,4.50
2023-07-12T09:22:19.815Z,3.80
2023-07-12T09:24:55.691Z,4.32
2023-07-12T09:27:29.370Z,4.60
2023-07-12T09:30:05.751Z,4.63
2023-07-12T09:32:37.665Z,4.43
2023-07-12T09:35:33.543Z,4.50
2023-07-12T09:38:08.106Z,4.50
2023-07-12T09:40:43.859Z,4.80
2023-07-12T09:43:19.747Z,4.25
2023-07-12T09:46:10.560Z,3.97
2023-07-12T09:48:45.050Z,4.00
2023-07-12T09:51:37.086Z,4.60
2023-07-12T09:54:34.043Z,4.60
2023-07-12T09:57:09.027Z,4.57
2023-07-12T10:00:12.674Z,4.47
2023-07-12T10:02:59.496Z,4.53
2023-07-12T10:05:26.321Z,4.30
2023-07-12T10:08:05.237Z,4.73
2023-07-12T10:10:47.515Z,4.43
2023-07-12T10:13:35.398Z,4.30
2023-07-12T10:16:07.897Z,4.35
2023-07-12T10:18:39.283Z,4.72
2023-07-12T10:21:08.575Z,4.40
2023-07-12T10:23:45.191Z,4.45
2023-07-12T10:26:15.617Z,4.55
2023-07-12T10:29:07.180Z,5.10
2023-07-12T10:31:56.901Z,4.78
2023-07-12T10:34:41.351Z,4.60
2023-07-12T10:37:26.983Z,4.57
2023-07-12T10:39:54.367Z,4.43
2023-07-12T10:42:31.719Z,4.85
2023-07-12T10:45:00.905Z,4.85
2023-07-12T10:47:41.935Z,4.30
2023-07-12T10:50:23.513Z,5.00
2023-07-12T10:53:17.891Z,4.70
2023-07-12T10:56:12.845Z,4.82
2023-07-12T10:58:50.456Z,4.78
2023-07-12T11:01:57.680Z,4.60
2023-07-12T11:04:32.513Z,5.07
2023-07-12T11:07:08.523Z,5.00
2023-07-12T11:09:46.603Z,5.55
2023-07-12T11:12:32.524Z,5.07
2023-07-12T11:15:08.456Z,5.33
2023-07-12T11:18:21.966Z,4.90
2023-07-12T11:21:09.599Z,5.03
2023-07-12T11:23:42.612Z,5.05
2023-07-12T11:26:31.258Z,5.15
2023-07-12T11:29:23.264Z,5.30
2023-07-12T11:32:18.697Z,5.10
2023-07-12T11:34:47.208Z,5.60
2023-07-12T11:37:24.976Z,5.10
2023-07-12T11:39:52.711Z,4.63
2023-07-12T11:42:28.389Z,3.87
2023-07-12T11:45:06.393Z,4.60
2023-07-12T11:47:34.070Z,4.25
2023-07-12T11:50:02.464Z,4.20
2023-07-12T11:52:29.577Z,4.53
2023-07-12T11:54:56.293Z,4.23
2023-07-12T11:57:23.449Z,3.65
2023-07-12T11:59:51.727Z,3.65
2023-07-12T12:02:23.268Z,4.05
2023-07-12T12:04:57.966Z,4.50
2023-07-12T12:07:33.380Z,3.57
2023-07-12T12:10:02.720Z,4.05
2023-07-12T12:12:33.144Z,3.97
2023-07-12T12:15:03.741Z,4.20
2023-07-12T12:17:38.069Z,4.85
2023-07-12T12:20:15.389Z,4.53
2023-07-12T12:22:45.099Z,4.60
2023-07-12T12:25:20.632Z,4.50
2023-07-12T12:27:50.053Z,4.45
2023-07-12T12:30:18.936Z,4.20
2023-07-12T12:33:06.031Z,4.27
2023-07-12T12:35:45.758Z,4.22
2023-07-12T12:38:21.716Z,4.50
2023-07-12T12:40:57.634Z,4.15
2023-07-12T12:43:26.970Z,4.13
2023-07-12T12:46:06.486Z,3.87
2023-07-12T12:52:34.202Z,4.03
2023-07-12T12:53:55.716Z,4.18
2023-07-12T13:06:28.873Z,4.85
2023-07-12T13:21:27.162Z,4.55
2023-07-12T13:23:54.651Z,4.37
2023-07-12T13:26:23.491Z,4.82
2023-07-12T13:28:50.820Z,4.25
2023-07-12T13:31:20.928Z,4.63
2023-07-12T13:36:30.908Z,5.00
2023-07-12T13:46:47.804Z,4.97
2023-07-12T13:49:16.161Z,5.60
2023-07-12T13:51:43.443Z,4.80
2023-07-12T13:54:11.043Z,5.32
2023-07-12T14:09:19.075Z,3.95
2023-07-12T14:11:46.450Z,3.58
2023-07-12T14:14:14.390Z,3.93
2023-07-12T14:16:41.345Z,4.40
2023-07-12T14:19:08.064Z,4.00
2023-07-12T14:21:34.672Z,4.10
2023-07-12T14:24:01.929Z,4.47
2023-07-12T14:26:28.529Z,4.87
2023-07-12T14:29:00.470Z,5.15
2023-07-12T14:31:31.411Z,5.80
2023-07-12T14:33:58.098Z,6.32
2023-07-12T14:36:27.233Z,5.63
2023-07-12T14:38:54.057Z,5.63
2023-07-12T14:41:28.628Z,5.90
2023-07-12T14:44:01.132Z,5.85
2023-07-12T14:46:27.828Z,5.38
2023-07-12T14:48:54.707Z,5.60
2023-07-12T14:51:24.814Z,5.70
2023-07-12T14:53:52.903Z,5.25
2023-07-12T14:56:22.395Z,4.80
2023-07-12T14:58:49.254Z,5.18
2023-07-12T15:01:29.482Z,5.63
2023-07-12T15:04:00.009Z,5.53
2023-07-12T15:06:27.496Z,5.65
2023-07-12T15:08:58.230Z,5.93
2023-07-12T15:11:27.497Z,5.50
2023-07-12T15:13:54.875Z,4.82
2023-07-12T15:16:23.857Z,5.43
2023-07-12T15:18:51.040Z,5.68
2023-07-12T15:21:22.960Z,5.90
2023-07-12T15:23:50.187Z,5.72
2023-07-12T15:26:18.017Z,6.43
2023-07-12T15:28:46.996Z,6.33
2023-07-12T15:31:24.712Z,7.28
2023-07-12T15:33:52.441Z,6.97
2023-07-12T15:36:20.038Z,6.47
2023-07-12T15:38:50.911Z,6.28
2023-07-12T15:41:24.527Z,6.10
2023-07-12T15:43:56.155Z,6.50
2023-07-12T15:46:28.756Z,6.82
2023-07-12T15:48:56.871Z,7.13
2023-07-12T15:51:26.768Z,6.97
2023-07-12T15:53:56.183Z,6.53
2023-07-12T15:56:29.029Z,6.38
2023-07-12T15:58:56.152Z,6.22
2023-07-12T16:01:29.562Z,6.20
2023-07-12T16:03:57.284Z,6.30
2023-07-12T16:06:24.736Z,5.47
2023-07-12T16:08:52.572Z,6.25
2023-07-12T16:11:27.471Z,5.93
2023-07-12T16:14:00.822Z,5.55
2023-07-12T16:16:32.765Z,6.22
2023-07-12T16:18:59.705Z,6.00
2023-07-12T16:21:30.318Z,5.82
2023-07-12T16:23:59.590Z,5.93
2023-07-12T16:26:30.453Z,5.55
2023-07-12T16:28:58.742Z,5.45
2023-07-12T16:31:25.864Z,5.17
2023-07-12T16:33:55.153Z,5.65
2023-07-12T16:36:23.416Z,5.53
2023-07-12T16:38:50.579Z,5.20
2023-07-12T16:41:31.663Z,5.75
2023-07-12T16:43:59.480Z,6.00
2023-07-12T16:46:27.781Z,5.78
2023-07-12T16:48:54.897Z,5.50
2023-07-12T16:51:28.886Z,4.95
2023-07-12T16:53:55.940Z,4.70
2023-07-12T16:56:26.409Z,5.57
2023-07-12T16:58:54.659Z,4.82
2023-07-12T17:01:30.380Z,5.30
2023-07-12T17:03:58.828Z,5.50
2023-07-12T17:06:26.206Z,5.60
2023-07-12T17:08:53.059Z,4.97
2023-07-12T17:11:22.696Z,5.43
2023-07-12T17:13:49.434Z,5.25
2023-07-12T17:16:17.587Z,5.70
2023-07-12T17:18:45.122Z,5.82
2023-07-12T17:21:21.045Z,5.63
2023-07-12T17:23:48.026Z,5.13
2023-07-12T17:26:17.157Z,5.90
2023-07-12T17:28:45.668Z,5.15
2023-07-12T17:31:19.001Z,6.25
2023-07-12T17:33:46.250Z,5.53
2023-07-12T17:36:16.456Z,6.10
2023-07-12T17:38:43.494Z,5.78
2023-07-12T17:41:18.867Z,5.90
2023-07-12T17:43:45.743Z,6.20
2023-07-12T17:46:13.260Z,5.63
2023-07-12T17:48:43.900Z,6.22
2023-07-12T17:51:37.389Z,5.80
2023-07-12T17:54:04.593Z,5.80
2023-07-12T17:56:31.658Z,6.13
2023-07-12T17:58:59.077Z,5.70
2023-07-12T18:01:27.842Z,6.65
2023-07-12T18:03:55.313Z,5.65
2023-07-12T18:06:25.816Z,5.85
2023-07-12T18:08:53.841Z,6.72
2023-07-12T18:11:28.373Z,6.77
2023-07-12T18:13:56.401Z,6.90
2023-07-12T18:16:24.192Z,6.65
2023-07-12T18:18:52.338Z,6.75
2023-07-12T18:21:25.693Z,7.18
2023-07-12T18:23:52.497Z,6.73
2023-07-12T18:26:20.668Z,6.70
2023-07-12T18:28:48.670Z,7.28
2023-07-12T18:31:22.831Z,6.82
2023-07-12T18:33:49.573Z,7.32
2023-07-12T18:36:21.188Z,7.07
2023-07-12T18:38:49.744Z,7.18
2023-07-12T18:41:25.367Z,8.63
2023-07-12T18:43:56.740Z,7.57
2023-07-12T18:46:24.337Z,7.72
2023-07-12T18:48:51.665Z,7.17
2023-07-12T18:51:23.518Z,7.95
2023-07-12T18:53:50.761Z,7.40
2023-07-12T18:56:20.342Z,7.57
2023-07-12T18:58:47.733Z,7.72
2023-07-12T19:01:17.384Z,6.87
2023-07-12T19:03:44.722Z,7.57
2023-07-12T19:06:22.950Z,7.25
2023-07-12T19:08:50.548Z,7.30
2023-07-12T19:11:33.865Z,7.43
2023-07-12T19:14:00.596Z,7.50
2023-07-12T19:16:28.350Z,7.45
2023-07-12T19:18:55.188Z,8.52
2023-07-12T19:21:27.377Z,7.38
2023-07-12T19:23:55.996Z,8.20
2023-07-12T19:26:24.573Z,7.63
2023-07-12T19:28:53.800Z,8.35
2023-07-12T19:31:25.739Z,8.52
2023-07-12T19:33:54.921Z,8.85
2023-07-12T19:36:26.838Z,8.75
2023-07-12T19:38:55.779Z,8.30
2023-07-12T19:41:26.480Z,8.15
2023-07-12T19:43:53.738Z,8.23
2023-07-12T19:46:20.778Z,7.97
2023-07-12T19:48:47.717Z,8.93
2023-07-12T19:51:28.241Z,8.93
2023-07-12T19:53:59.996Z,9.13
2023-07-12T19:56:27.172Z,10.35
2023-07-12T19:58:57.490Z,9.95
2023-07-12T20:01:26.561Z,9.43
2023-07-12T20:03:55.482Z,7.00
2023-07-12T20:06:23.647Z,6.03
2023-07-12T20:08:54.235Z,5.82
2023-07-12T20:11:22.471Z,5.60
2023-07-12T20:13:50.194Z,5.68
2023-07-12T20:16:19.673Z,6.70
2023-07-12T20:18:46.565Z,5.90
2023-07-12T20:21:13.680Z,5.93
2023-07-12T20:23:40.905Z,5.82
2023-07-12T20:26:11.487Z,6.53
2023-07-12T20:28:42.010Z,6.33
2023-07-12T20:31:11.765Z,6.30
2023-07-12T20:33:40.505Z,6.97
2023-07-12T20:36:09.173Z,7.30
2023-07-12T20:38:36.116Z,8.48
2023-07-12T20:41:02.954Z,8.00
2023-07-12T20:43:32.992Z,7.90
2023-07-12T20:46:02.516Z,7.47
2023-07-12T20:48:34.034Z,7.28
2023-07-12T20:51:03.502Z,7.28
2023-07-12T20:53:31.377Z,7.00
2023-07-12T20:56:01.609Z,7.03
2023-07-12T20:58:30.838Z,7.53
2023-07-12T21:01:11.830Z,7.68
2023-07-12T21:03:38.651Z,8.10
2023-07-12T21:06:07.154Z,9.10
2023-07-12T21:08:35.418Z,8.73
2023-07-12T21:11:05.146Z,9.40
2023-07-12T21:13:32.984Z,8.73
2023-07-12T21:16:02.519Z,9.63
2023-07-12T21:18:29.746Z,9.07
2023-07-12T21:20:57.083Z,9.52
2023-07-12T21:23:26.136Z,8.65
2023-07-12T21:25:53.033Z,8.18
2023-07-12T21:28:19.715Z,7.65
2023-07-12T21:30:50.700Z,6.80
2023-07-12T21:33:18.368Z,5.13
2023-07-12T21:35:57.653Z,4.78
2023-07-12T21:38:28.025Z,3.97
2023-07-12T21:41:08.342Z,2.85
2023-07-12T21:43:35.715Z,2.40
2023-07-12T21:46:03.120Z,2.90
2023-07-12T21:48:30.216Z,2.40
2023-07-12T21:50:59.447Z,2.40
2023-07-12T21:53:26.250Z,2.05
2023-07-12T21:55:53.085Z,2.43
2023-07-12T21:58:22.305Z,2.15
2023-07-12T22:00:49.258Z,2.45
2023-07-12T22:03:16.674Z,2.13
2023-07-12T22:05:44.734Z,2.20
2023-07-12T22:08:13.473Z,2.00
2023-07-12T22:10:40.451Z,1.50
2023-07-12T22:13:07.048Z,1.98
2023-07-12T22:15:34.065Z,2.17
2023-07-12T22:18:00.700Z,1.67
2023-07-12T22:20:27.598Z,1.50
2023-07-12T22:22:55.646Z,2.03
2023-07-12T22:25:22.936Z,2.15
2023-07-12T22:27:51.068Z,1.55
2023-07-12T22:30:29.727Z,1.67
2023-07-12T22:32:57.358Z,1.90
2023-07-12T22:35:24.812Z,1.85
2023-07-12T22:37:53.618Z,2.10
2023-07-12T22:40:20.958Z,2.00
2023-07-12T22:42:49.075Z,2.22
2023-07-12T22:45:16.216Z,2.17
2023-07-12T22:47:43.118Z,1.60
2023-07-12T22:50:11.280Z,2.17
2023-07-12T22:52:38.304Z,2.22
2023-07-12T22:55:05.388Z,2.20
2023-07-12T22:57:32.429Z,2.10
2023-07-12T23:00:01.220Z,2.35
2023-07-12T23:02:27.925Z,2.35
2023-07-12T23:04:54.596Z,2.08
2023-07-12T23:07:22.068Z,1.63
2023-07-12T23:09:51.403Z,1.80
2023-07-12T23:12:18.167Z,1.95
2023-07-12T23:14:44.850Z,1.55
2023-07-12T23:17:12.513Z,1.63
2023-07-12T23:19:40.523Z,1.80
2023-07-12T23:22:07.570Z,1.73
2023-07-12T23:24:34.240Z,1.83
2023-07-12T23:27:05.236Z,2.17
2023-07-12T23:29:35.211Z,1.50
2023-07-12T23:32:04.594Z,2.30
2023-07-12T23:34:34.456Z,2.40
2023-07-12T23:37:02.564Z,2.05
2023-07-12T23:39:30.461Z,2.00
2023-07-12T23:42:03.582Z,2.20
2023-07-12T23:44:32.097Z,1.85
2023-07-12T23:46:59.683Z,1.80
2023-07-12T23:49:28.005Z,2.22
2023-07-12T23:51:57.698Z,1.98
2023-07-12T23:54:25.437Z,2.17
2023-07-12T23:56:56.284Z,2.28
2023-07-12T23:59:23.590Z,2.30
